Time;durP1;ratioP1;P1;durP2;ratioP2;P2;SDS_P1;SDS_P2;PMS_P1;PMS_P2;Temp;Humidity;BMP_temperature;BMP_pressure;BME280_temperature;BME280_humidity;BME280_pressure;Samples;Min_cycle;Max_cycle;Signal;HPM_P1;HPM_P2
2023/07/20 00:02:05;;;;;;;19.10;8.97;;;;;;;24.43;56.67;99739.66;126708;1086;101880;-78
2023/07/20 00:04:33;;;;;;;19.83;9.20;;;;;;;24.15;57.43;99759.36;126543;1086;104367;-78
2023/07/20 00:07:02;;;;;;;20.63;9.50;;;;;;;23.91;57.74;99754.77;126680;1086;102379;-78
2023/07/20 00:09:31;;;;;;;17.93;8.43;;;;;;;23.71;58.23;99747.31;126553;1086;104156;-77
2023/07/20 00:12:00;;;;;;;20.07;8.77;;;;;;;23.63;58.95;99728.80;126568;1086;102419;-79
2023/07/20 00:14:29;;;;;;;15.57;8.10;;;;;;;23.59;58.58;99735.16;126598;1086;104220;-78
2023/07/20 00:16:57;;;;;;;18.20;8.17;;;;;;;23.54;58.54;99737.97;126570;1086;104341;-78
2023/07/20 00:19:27;;;;;;;20.40;8.10;;;;;;;23.53;59.35;99744.27;126682;1086;104201;-77
2023/07/20 00:21:56;;;;;;;19.43;7.77;;;;;;;23.48;59.11;99736.38;126622;1085;104152;-77
2023/07/20 00:24:25;;;;;;;22.90;7.93;;;;;;;23.47;59.57;99725.71;126665;1086;102018;-78
2023/07/20 00:26:54;;;;;;;15.27;7.57;;;;;;;23.48;59.30;99724.77;126607;1086;102357;-77
2023/07/20 00:29:22;;;;;;;17.10;7.50;;;;;;;23.47;59.63;99726.58;126623;1086;101963;-78
2023/07/20 00:31:51;;;;;;;15.43;6.83;;;;;;;23.45;59.73;99725.76;126689;1086;104258;-77
2023/07/20 00:34:19;;;;;;;21.35;7.05;;;;;;;23.45;59.83;99719.50;126780;1086;102012;-78
2023/07/20 00:36:48;;;;;;;14.43;6.90;;;;;;;23.46;59.61;99721.27;126908;1086;101794;-78
2023/07/20 00:39:17;;;;;;;13.87;5.90;;;;;;;23.47;60.27;99744.45;126760;1086;104203;-76
2023/07/20 00:41:45;;;;;;;12.83;5.80;;;;;;;23.42;60.16;99751.72;126668;1086;101949;-77
2023/07/20 00:44:14;;;;;;;10.40;5.33;;;;;;;23.33;60.59;99743.05;126641;1086;104207;-78
2023/07/20 00:46:43;;;;;;;10.87;5.10;;;;;;;23.21;60.82;99737.17;126834;1086;104159;-77
2023/07/20 00:49:12;;;;;;;12.13;5.40;;;;;;;23.11;61.32;99741.91;126724;1086;104220;-77
2023/07/20 00:51:42;;;;;;;11.87;5.60;;;;;;;23.06;61.82;99758.06;126882;1086;104261;-77
2023/07/20 00:54:11;;;;;;;11.03;5.00;;;;;;;23.00;61.98;99760.00;126585;1085;104641;-77
2023/07/20 00:56:40;;;;;;;9.50;4.93;;;;;;;22.95;61.97;99758.36;126901;1086;104228;-76
2023/07/20 00:59:09;;;;;;;11.27;5.40;;;;;;;22.96;61.82;99745.84;126722;1086;102101;-76
2023/07/20 01:01:38;;;;;;;11.07;5.27;;;;;;;22.96;62.08;99760.09;126681;1086;104149;-76
2023/07/20 01:04:07;;;;;;;10.13;5.50;;;;;;;22.94;62.81;99745.89;126639;1086;102066;-76
2023/07/20 01:06:43;;;;;;;11.97;5.43;;;;;;;22.93;62.55;99735.23;126679;1086;104180;-76
2023/07/20 01:09:18;;;;;;;10.10;5.60;;;;;;;22.91;62.98;99724.57;126584;1086;104038;-76
2023/07/20 01:11:54;;;;;;;14.77;5.67;;;;;;;22.89;63.02;99731.77;126640;1086;104165;-77
2023/07/20 01:14:23;;;;;;;13.27;5.23;;;;;;;22.80;63.35;99732.02;126620;1085;104149;-76
2023/07/20 01:16:52;;;;;;;11.70;5.27;;;;;;;22.74;63.46;99727.70;126691;1086;101915;-77
2023/07/20 01:19:21;;;;;;;11.27;5.43;;;;;;;22.77;63.48;99710.70;126577;1086;104204;-76
2023/07/20 01:21:56;;;;;;;13.07;5.20;;;;;;;22.81;63.97;99715.03;126728;1086;104220;-77
2023/07/20 01:24:53;;;;;;;7.70;4.87;;;;;;;22.80;63.53;99707.95;126515;1086;110784;-76
2023/07/20 01:27:56;;;;;;;10.17;4.97;;;;;;;22.79;63.79;99714.20;126957;1085;104267;-76
2023/07/20 01:30:45;;;;;;;11.68;5.22;;;;;;;22.76;64.03;99708.94;126554;1086;104290;-75
2023/07/20 01:33:16;;;;;;;11.10;5.10;;;;;;;22.76;64.03;99714.28;126565;1086;101976;-77
2023/07/20 01:35:48;;;;;;;11.03;5.10;;;;;;;22.74;64.18;99705.44;126731;1086;102008;-76
2023/07/20 01:38:19;;;;;;;9.87;4.80;;;;;;;22.79;64.37;99699.02;126776;1085;102082;-77
2023/07/20 01:40:47;;;;;;;7.13;4.23;;;;;;;22.84;64.11;99700.70;126594;1086;102461;-76
2023/07/20 01:43:16;;;;;;;12.43;4.90;;;;;;;22.89;64.72;99705.02;126713;1086;102096;-76
2023/07/20 01:45:45;;;;;;;9.00;4.20;;;;;;;22.93;64.27;99703.13;126603;1086;101947;-76
2023/07/20 01:48:15;;;;;;;10.47;4.43;;;;;;;22.95;64.71;99694.16;127700;1086;101830;-76
2023/07/20 01:50:44;;;;;;;13.83;4.73;;;;;;;22.96;64.61;99693.21;126661;1086;104188;-76
2023/07/20 01:53:13;;;;;;;9.67;4.80;;;;;;;22.92;64.23;99679.96;126550;1086;104258;-76
2023/07/20 01:55:41;;;;;;;12.67;4.97;;;;;;;22.91;64.25;99684.45;126631;1086;104239;-76
2023/07/20 01:58:10;;;;;;;15.63;5.30;;;;;;;22.93;64.49;99687.95;126540;1085;104258;-76
2023/07/20 02:00:39;;;;;;;14.40;5.37;;;;;;;22.92;64.65;99691.56;126631;1086;104222;-76
2023/07/20 02:03:08;;;;;;;12.40;5.17;;;;;;;22.90;64.66;99690.70;126586;1086;104318;-76
2023/07/20 02:05:36;;;;;;;9.83;5.07;;;;;;;22.88;64.64;99683.67;126570;1086;104609;-75
2023/07/20 02:08:05;;;;;;;7.17;4.43;;;;;;;22.86;64.72;99688.16;126628;1086;103556;-76
2023/07/20 02:10:34;;;;;;;8.37;4.90;;;;;;;22.85;64.47;99687.30;126717;1086;101830;-76
2023/07/20 02:13:02;;;;;;;11.60;4.73;;;;;;;22.86;64.94;99680.14;126709;1086;102018;-76
2023/07/20 02:15:31;;;;;;;11.73;5.10;;;;;;;22.85;64.91;99683.75;126679;1086;104229;-76
2023/07/20 02:17:59;;;;;;;8.37;4.90;;;;;;;22.86;64.64;99683.70;126753;1086;101960;-76
2023/07/20 02:20:28;;;;;;;11.13;5.20;;;;;;;22.84;64.94;99674.83;126541;1086;102015;-76
2023/07/20 02:22:56;;;;;;;10.73;5.20;;;;;;;22.80;64.79;99673.18;126542;1085;104321;-76
2023/07/20 02:25:25;;;;;;;11.30;5.70;;;;;;;22.77;65.02;99675.94;126586;1086;104204;-76
2023/07/20 02:27:54;;;;;;;10.07;4.73;;;;;;;22.71;65.14;99676.97;126687;1086;101858;-76
2023/07/20 02:30:22;;;;;;;10.23;5.17;;;;;;;22.69;64.95;99678.82;126659;1086;104248;-76
2023/07/20 02:32:51;;;;;;;13.73;5.23;;;;;;;22.62;64.96;99674.55;126660;1086;104250;-76
2023/07/20 02:35:19;;;;;;;10.13;5.03;;;;;;;22.60;65.21;99666.56;126639;1086;104348;-76
2023/07/20 02:37:48;;;;;;;10.90;4.80;;;;;;;22.63;65.70;99664.75;126744;1086;104267;-76
2023/07/20 02:40:18;;;;;;;11.63;5.87;;;;;;;22.65;65.48;99665.58;126600;1085;104242;-76
2023/07/20 02:42:46;;;;;;;12.23;5.20;;;;;;;22.66;65.70;99664.63;126610;1086;104229;-76
2023/07/20 02:45:15;;;;;;;13.30;5.60;;;;;;;22.66;65.73;99664.63;126608;1086;104184;-76
2023/07/20 02:47:44;;;;;;;11.03;5.03;;;;;;;22.66;65.70;99664.63;126628;1086;102239;-76
2023/07/20 02:50:14;;;;;;;12.77;5.43;;;;;;;22.67;65.59;99667.27;126571;1086;104197;-76
2023/07/20 02:52:45;;;;;;;10.03;5.60;;;;;;;22.67;65.55;99667.27;127703;1085;101915;-76
2023/07/20 02:55:13;;;;;;;9.53;5.43;;;;;;;22.70;66.04;99668.99;126593;1086;104152;-76
2023/07/20 02:57:42;;;;;;;10.87;5.40;;;;;;;22.72;66.04;99669.81;126587;1086;104146;-76
2023/07/20 03:00:16;;;;;;;10.40;5.30;;;;;;;22.74;66.15;99676.89;126320;1086;104209;-76
2023/07/20 03:02:47;;;;;;;10.73;5.33;;;;;;;22.77;65.92;99668.78;126757;1086;104264;-77
2023/07/20 03:05:16;;;;;;;10.87;5.73;;;;;;;22.79;66.53;99672.28;126673;1085;104226;-77
2023/07/20 03:07:45;;;;;;;12.50;5.20;;;;;;;22.81;66.00;99680.27;126687;1086;104264;-76
2023/07/20 03:10:14;;;;;;;10.07;5.20;;;;;;;22.84;65.81;99680.17;126632;1086;104258;-76
2023/07/20 03:12:42;;;;;;;11.17;4.90;;;;;;;22.89;66.41;99680.95;126682;1086;104162;-76
2023/07/20 03:15:12;;;;;;;13.47;5.53;;;;;;;22.93;66.45;99684.41;126941;1086;102187;-77
2023/07/20 03:17:40;;;;;;;12.17;5.10;;;;;;;22.96;66.09;99678.97;127909;1086;101904;-77
2023/07/20 03:20:12;;;;;;;10.43;4.97;;;;;;;23.00;66.12;99677.97;127374;1086;104177;-77
2023/07/20 03:22:41;;;;;;;11.23;4.90;;;;;;;23.07;66.15;99674.18;127561;1086;101868;-77
2023/07/20 03:25:10;;;;;;;11.43;5.40;;;;;;;23.14;66.31;99675.80;127880;1085;101847;-77
2023/07/20 03:27:39;;;;;;;15.57;6.70;;;;;;;23.19;66.02;99670.31;126624;1086;104175;-76
2023/07/20 03:30:10;;;;;;;11.77;5.37;;;;;;;23.24;65.99;99671.05;126613;1086;104251;-76
2023/07/20 03:32:40;;;;;;;12.73;5.60;;;;;;;23.27;66.04;99670.09;126501;1086;104200;-76
2023/07/20 03:35:10;;;;;;;9.83;5.00;;;;;;;23.27;66.15;99675.44;126502;1086;104244;-76
2023/07/20 03:37:38;;;;;;;9.63;5.00;;;;;;;23.28;65.79;99664.69;127610;1085;102006;-76
2023/07/20 03:40:09;;;;;;;14.40;5.17;;;;;;;23.35;65.83;99670.73;127429;1085;104261;-76
2023/07/20 03:42:39;;;;;;;10.70;4.90;;;;;;;23.40;66.01;99665.23;127724;1085;101974;-76
2023/07/20 03:45:09;;;;;;;9.83;5.03;;;;;;;23.46;66.53;99662.38;126590;1085;104156;-76
2023/07/20 03:47:38;;;;;;;12.43;5.57;;;;;;;23.52;65.97;99667.54;126718;1086;104213;-76
2023/07/20 03:50:09;;;;;;;11.23;5.57;;;;;;;23.54;65.81;99671.03;126421;1086;104370;-76
2023/07/20 03:52:38;;;;;;;11.60;5.90;;;;;;;23.55;65.75;99669.26;126571;1086;101873;-76
2023/07/20 03:55:08;;;;;;;10.77;5.87;;;;;;;23.57;65.65;99670.94;126546;1086;104158;-76
2023/07/20 03:57:37;;;;;;;12.90;5.60;;;;;;;23.64;65.91;99683.23;126655;1086;101901;-75
2023/07/20 04:00:12;;;;;;;10.13;5.87;;;;;;;23.67;65.93;99683.13;126516;1086;104149;-76
2023/07/20 04:02:43;;;;;;;11.90;5.47;;;;;;;23.64;65.93;99690.39;126481;1086;104229;-76
2023/07/20 04:05:11;;;;;;;9.73;5.13;;;;;;;23.60;66.21;99689.59;126501;1086;102244;-77
2023/07/20 04:07:40;;;;;;;10.90;5.20;;;;;;;23.57;65.56;99692.36;126548;1086;110737;-78
2023/07/20 04:10:10;;;;;;;10.23;5.80;;;;;;;23.48;65.78;99692.64;126505;1086;104210;-76
2023/07/20 04:12:39;;;;;;;11.97;5.47;;;;;;;23.43;66.54;99686.56;126446;1086;104194;-76
2023/07/20 04:15:10;;;;;;;14.73;5.80;;;;;;;23.40;66.18;99684.84;126477;1086;102062;-76
2023/07/20 04:17:43;;;;;;;18.53;6.00;;;;;;;23.42;66.01;99685.69;127417;1086;102137;-76
2023/07/20 04:20:12;;;;;;;16.27;5.90;;;;;;;23.37;66.50;99679.58;126582;1086;104143;-76
2023/07/20 04:22:41;;;;;;;11.13;5.77;;;;;;;23.27;66.29;99687.02;126561;1086;101845;-76
2023/07/20 04:25:13;;;;;;;13.13;5.77;;;;;;;23.21;66.67;99679.16;126506;1086;104194;-75
2023/07/20 04:27:42;;;;;;;12.67;5.47;;;;;;;23.21;66.56;99675.63;126428;1086;102162;-76
2023/07/20 04:30:13;;;;;;;13.90;6.20;;;;;;;23.19;66.98;99678.34;126646;1086;104319;-76
2023/07/20 04:32:44;;;;;;;12.77;5.63;;;;;;;23.18;66.57;99673.03;126608;1086;104152;-76
2023/07/20 04:35:39;;;;;;;16.20;6.10;;;;;;;23.18;66.79;99681.93;127329;1086;101960;-76
2023/07/20 04:38:12;;;;;;;15.40;6.23;;;;;;;23.24;67.27;99686.23;127419;1086;118492;-76
2023/07/20 04:40:47;;;;;;;19.27;6.83;;;;;;;23.27;66.84;99689.69;126491;1086;104135;-75
2023/07/20 04:43:16;;;;;;;12.33;6.10;;;;;;;23.33;67.06;99686.83;127793;1085;101892;-76
2023/07/20 04:45:47;;;;;;;12.50;5.90;;;;;;;23.43;67.42;99679.39;127495;1086;101989;-76
2023/07/20 04:48:17;;;;;;;17.33;6.17;;;;;;;23.54;66.99;99676.39;127387;1086;104159;-76
2023/07/20 04:50:56;;;;;;;13.27;5.60;;;;;;;23.59;67.21;99679.83;126564;1086;101872;-79
2023/07/20 04:53:25;;;;;;;14.73;6.63;;;;;;;23.69;67.72;99683.08;126451;1086;104319;-75
2023/07/20 04:55:54;;;;;;;15.30;6.27;;;;;;;23.81;66.71;99684.48;126166;1086;104108;-76
2023/07/20 04:58:24;;;;;;;15.13;6.60;;;;;;;23.83;67.22;99682.66;126390;1086;104140;-75
2023/07/20 05:00:54;;;;;;;15.23;5.90;;;;;;;23.84;67.30;99684.41;126204;1086;104306;-75
2023/07/20 05:03:23;;;;;;;14.10;6.17;;;;;;;23.83;67.27;99682.66;126479;1086;104258;-75
2023/07/20 05:05:52;;;;;;;15.37;6.03;;;;;;;23.78;66.99;99687.25;126343;1086;104201;-75
2023/07/20 05:08:22;;;;;;;13.53;6.40;;;;;;;23.71;67.00;99678.55;126341;1086;102197;-76
2023/07/20 05:10:51;;;;;;;16.77;6.17;;;;;;;23.67;67.20;99677.78;126307;1086;104334;-74
2023/07/20 05:13:19;;;;;;;13.23;5.90;;;;;;;23.64;67.09;99674.33;126388;1086;101910;-76
2023/07/20 05:15:51;;;;;;;12.77;5.67;;;;;;;23.60;67.17;99669.98;126567;1086;104174;-76
2023/07/20 05:18:20;;;;;;;13.53;6.27;;;;;;;23.55;67.17;99671.94;126500;1086;101930;-76
2023/07/20 05:20:49;;;;;;;19.63;6.40;;;;;;;23.53;67.33;99680.02;126648;1086;104239;-81
2023/07/20 05:23:30;;;;;;;16.13;6.67;;;;;;;23.51;67.34;99677.38;127852;1086;101804;-77
2023/07/20 05:26:01;;;;;;;13.33;6.30;;;;;;;23.54;67.36;99676.39;127591;1085;102150;-78
2023/07/20 05:28:30;;;;;;;14.73;6.77;;;;;;;23.58;67.32;99678.06;127663;1086;103046;-79
2023/07/20 05:30:59;;;;;;;14.60;6.70;;;;;;;23.65;67.54;99674.28;126724;1086;104025;-76
2023/07/20 05:33:28;;;;;;;15.17;6.00;;;;;;;23.77;67.44;99674.81;126466;1086;102028;-78
2023/07/20 05:35:56;;;;;;;12.37;6.10;;;;;;;23.90;67.34;99673.50;126605;1086;101772;-76
2023/07/20 05:38:25;;;;;;;13.17;6.50;;;;;;;24.00;67.26;99674.97;126548;1086;104258;-74
2023/07/20 05:40:59;;;;;;;11.70;6.13;;;;;;;24.09;66.94;99667.55;126439;1086;102483;-76
2023/07/20 05:43:28;;;;;;;14.73;6.93;;;;;;;24.15;66.82;99678.95;126552;1086;104277;-76
2023/07/20 05:45:56;;;;;;;13.07;6.73;;;;;;;24.19;67.02;99677.05;126433;1086;101892;-77
2023/07/20 05:48:25;;;;;;;12.13;6.10;;;;;;;24.26;67.28;99686.61;127372;1086;104228;-76
2023/07/20 05:50:54;;;;;;;17.53;6.60;;;;;;;24.33;67.14;99690.84;126448;1086;104217;-76
2023/07/20 05:53:23;;;;;;;13.60;6.60;;;;;;;24.37;67.16;99687.14;126429;1085;104309;-76
2023/07/20 05:55:55;;;;;;;13.53;6.03;;;;;;;24.44;66.76;99681.58;126486;1086;104152;-76
2023/07/20 05:58:24;;;;;;;13.20;6.67;;;;;;;24.48;66.87;99681.42;126645;1087;104334;-76
2023/07/20 06:00:57;;;;;;;14.67;6.73;;;;;;;24.52;67.00;99675.00;127286;1086;102311;-79
2023/07/20 06:03:27;;;;;;;14.50;6.73;;;;;;;24.57;66.81;99669.50;128190;1086;101906;-77
2023/07/20 06:06:02;;;;;;;16.60;6.00;;;;;;;24.60;67.00;99666.72;127527;1086;101960;-76
2023/07/20 06:08:31;;;;;;;15.67;6.50;;;;;;;24.60;66.70;99664.03;127313;1086;104357;-72
2023/07/20 06:11:03;;;;;;;15.47;6.77;;;;;;;24.60;66.80;99664.03;126458;1086;104254;-78
2023/07/20 06:13:43;;;;;;;11.20;6.37;;;;;;;24.57;66.40;99664.14;128236;1085;101788;-76
2023/07/20 06:16:18;;;;;;;12.00;6.27;;;;;;;24.57;66.47;99673.09;126797;1086;102108;-77
2023/07/20 06:18:49;;;;;;;13.47;6.77;;;;;;;24.63;66.49;99677.33;127938;1085;102362;-76
2023/07/20 06:21:17;;;;;;;13.37;6.70;;;;;;;24.68;66.26;99670.02;126712;1086;101910;-76
2023/07/20 06:23:49;;;;;;;16.67;6.40;;;;;;;24.76;66.51;99673.30;126601;1086;102341;-75
2023/07/20 06:26:30;;;;;;;14.63;6.43;;;;;;;24.84;66.78;99677.49;126427;1086;104219;-78
2023/07/20 06:31:36;;;;;;;12.60;6.10;;;;;;;24.90;66.53;99680.84;126567;1086;104149;-78
2023/07/20 06:34:05;;;;;;;14.03;6.40;;;;;;;24.94;66.17;99678.92;126527;1086;104306;-73
2023/07/20 06:36:33;;;;;;;17.50;7.30;;;;;;;24.99;66.44;99665.33;126591;1086;101969;-76
2023/07/20 06:39:04;;;;;;;16.80;6.73;;;;;;;25.04;65.93;99664.23;126836;1086;104298;-75
2023/07/20 06:41:35;;;;;;;14.33;6.53;;;;;;;25.15;66.07;99665.63;126614;1086;101807;-74
2023/07/20 06:44:06;;;;;;;18.00;6.90;;;;;;;25.25;66.19;99673.27;126619;1086;104146;-76
2023/07/20 06:46:38;;;;;;;16.97;6.73;;;;;;;25.32;65.52;99668.57;126806;1086;102210;-78
2023/07/20 06:49:09;;;;;;;14.10;6.50;;;;;;;25.41;65.87;99670.91;127748;1085;104300;-77
2023/07/20 06:51:40;;;;;;;14.15;6.83;;;;;;;25.58;66.03;99662.19;126930;1086;104194;-82
2023/07/20 06:54:13;;;;;;;12.90;6.67;;;;;;;25.72;65.45;99664.33;126752;1086;104181;-80
2023/07/20 06:59:24;;;;;;;;;;;;;;;25.88;65.14;99661.02;127446;1085;104213;-79
2023/07/20 07:02:00;;;;;;;15.40;6.30;;;;;;;26.00;64.94;99661.41;128002;1085;104222;-78
2023/07/20 07:04:29;;;;;;;21.37;6.70;;;;;;;26.09;64.42;99660.17;126654;1086;104226;-77
2023/07/20 07:06:59;;;;;;;10.70;5.90;;;;;;;26.22;64.64;99662.34;127552;1086;101810;-81
2023/07/20 07:09:28;;;;;;;14.60;6.10;;;;;;;26.34;63.93;99665.37;127300;1086;104146;-80
2023/07/20 07:12:00;;;;;;;16.50;6.50;;;;;;;26.47;63.83;99652.27;128053;1086;104066;-78
2023/07/20 07:14:30;;;;;;;14.07;6.20;;;;;;;26.68;63.79;99660.39;128365;1085;104060;-80
2023/07/20 07:17:02;;;;;;;12.17;6.77;;;;;;;26.76;63.17;99660.05;127282;1086;104289;-79
2023/07/20 07:19:36;;;;;;;14.07;6.40;;;;;;;26.88;62.91;99657.68;127070;1086;104255;-80
2023/07/20 07:22:17;;;;;;;13.80;6.30;;;;;;;27.11;62.46;99658.43;127500;1086;104183;-81
2023/07/20 07:24:50;;;;;;;17.73;6.75;;;;;;;27.32;62.59;99664.69;127360;1086;101990;-79
2023/07/20 07:27:19;;;;;;;12.40;5.90;;;;;;;27.49;61.96;99663.89;126812;1086;104213;-77
2023/07/20 07:29:51;;;;;;;17.37;6.70;;;;;;;27.67;61.74;99655.86;126893;1086;101927;-76
2023/07/20 07:32:25;;;;;;;13.93;6.53;;;;;;;27.90;61.49;99650.20;127339;1085;104185;-82
2023/07/20 07:34:58;;;;;;;17.13;6.90;;;;;;;28.11;61.63;99648.30;128084;1085;101819;-79
2023/07/20 07:40:16;;;;;;;15.27;6.50;;;;;;;28.44;60.45;99649.36;128161;1086;101961;-80
2023/07/20 07:42:48;;;;;;;15.60;7.07;;;;;;;28.50;60.13;99655.30;127369;1086;102014;-78
2023/07/20 07:45:28;;;;;;;12.17;6.40;;;;;;;28.62;59.65;99652.94;127982;1085;101777;-79
2023/07/20 07:48:05;;;;;;;12.03;6.03;;;;;;;28.87;59.47;99647.09;127684;1086;102095;-81
2023/07/20 07:50:39;;;;;;;12.27;5.80;;;;;;;29.02;59.19;99643.57;128064;1086;101769;-83
2023/07/20 07:53:17;;;;;;;10.40;5.97;;;;;;;29.12;57.59;99648.47;127122;1086;104232;-77
2023/07/20 07:55:51;;;;;;;14.65;6.15;;;;;;;29.22;56.99;99657.86;127415;1086;104318;-80
2023/07/20 07:58:35;;;;;;;10.47;5.53;;;;;;;29.24;56.86;99657.77;127219;1090;104159;-81
2023/07/20 08:01:47;;;;;;;10.27;5.70;;;;;;;29.29;55.82;99658.38;127443;1086;104197;-81
2023/07/20 08:04:19;;;;;;;9.50;5.53;;;;;;;29.37;55.10;99651.61;127392;1086;104241;-79
2023/07/20 08:06:53;;;;;;;12.87;5.87;;;;;;;29.45;55.10;99652.98;127035;1086;104053;-80
2023/07/20 08:09:34;;;;;;;;;;;;;;;;;;;;;
2023/07/20 08:12:28;;;;;;;9.67;5.20;;;;;;;29.90;54.04;99651.34;128503;1085;101773;-86
2023/07/20 08:15:38;;;;;;;10.00;5.20;;;;;;;30.00;52.81;99647.16;127737;1086;104238;-81
2023/07/20 08:18:30;;;;;;;9.45;5.35;;;;;;;30.20;53.22;99639.68;127766;1086;102043;-80
2023/07/20 08:21:15;;;;;;;8.43;5.10;;;;;;;30.34;52.68;99647.87;127360;1086;104178;-81
2023/07/20 08:23:52;;;;;;;13.40;5.27;;;;;;;30.28;52.34;99645.53;127403;1086;101860;-78
2023/07/20 08:26:22;;;;;;;9.20;5.20;;;;;;;30.40;52.21;99647.53;126796;1086;102375;-81
2023/07/20 08:28:51;;;;;;;8.33;5.50;;;;;;;30.50;51.37;99639.72;127167;1086;104252;-78
2023/07/20 08:34:08;;;;;;;9.07;5.10;;;;;;;30.61;50.47;99639.92;127431;1086;104168;-80
2023/07/20 08:36:58;;;;;;;9.53;4.73;;;;;;;30.70;49.13;99643.02;127679;1087;102019;-80
2023/07/20 08:39:28;;;;;;;8.97;4.53;;;;;;;30.64;49.04;99638.88;128184;1086;101870;-81
2023/07/20 08:42:12;;;;;;;7.93;4.80;;;;;;;30.70;48.56;99641.20;127326;1089;102553;-78
2023/07/20 08:44:57;;;;;;;6.93;4.60;;;;;;;30.75;47.57;99647.20;128095;1085;101797;-83
2023/07/20 08:47:36;;;;;;;8.77;4.70;;;;;;;30.91;47.15;99657.08;127317;1086;101949;-82
2023/07/20 08:50:14;;;;;;;9.80;5.00;;;;;;;31.00;46.97;99648.41;127063;1089;104261;-80
2023/07/20 08:52:59;;;;;;;8.17;5.37;;;;;;;31.14;47.30;99647.55;126766;1086;102076;-76
2023/07/20 08:58:30;;;;;;;7.10;4.25;;;;;;;30.97;47.01;99654.88;127170;1086;104201;-79
2023/07/20 09:01:29;;;;;;;5.50;4.23;;;;;;;31.05;46.48;99662.53;127614;1086;104312;-82
2023/07/20 09:04:27;;;;;;;8.63;4.60;;;;;;;31.19;46.10;99659.81;128273;1085;104175;-84
2023/07/20 09:07:00;;;;;;;9.03;5.00;;;;;;;31.31;45.67;99660.02;127145;1086;104146;-78
2023/07/20 09:09:34;;;;;;;11.27;4.07;;;;;;;31.42;45.72;99659.33;126658;1086;104298;-79
2023/07/20 09:12:17;;;;;;;6.30;3.90;;;;;;;31.58;44.14;99664.66;128553;1086;101468;-85
2023/07/20 09:14:46;;;;;;;5.30;3.70;;;;;;;31.61;44.00;99664.45;128923;1085;101647;-79
2023/07/20 09:17:19;;;;;;;5.40;3.97;;;;;;;31.58;43.50;99670.94;127330;1086;101901;-78
2023/07/20 09:19:54;;;;;;;6.27;3.83;;;;;;;31.63;43.58;99671.50;127436;1086;104159;-78
2023/07/20 09:22:29;;;;;;;8.00;3.60;;;;;;;31.61;43.00;99668.03;126799;1086;103409;-79
2023/07/20 09:24:59;;;;;;;8.23;4.10;;;;;;;31.58;43.13;99668.23;127771;1086;104188;-82
2023/07/20 09:27:39;;;;;;;9.50;4.70;;;;;;;31.67;43.49;99658.64;127282;1086;104251;-77
2023/07/20 09:30:13;;;;;;;9.63;4.57;;;;;;;31.88;43.44;99659.94;127874;1085;101969;-77
2023/07/20 09:32:43;;;;;;;10.10;5.13;;;;;;;31.89;43.26;99652.66;126822;1086;101807;-77
2023/07/20 09:35:19;;;;;;;6.03;4.00;;;;;;;31.88;43.17;99654.51;126383;1086;104188;-77
2023/07/20 09:37:52;;;;;;;5.73;4.23;;;;;;;32.00;43.16;99651.94;126444;1086;104404;-76
2023/07/20 09:40:21;;;;;;;8.43;4.10;;;;;;;32.09;42.75;99651.36;126543;1086;104149;-75
2023/07/20 09:42:59;;;;;;;9.93;3.97;;;;;;;32.11;42.61;99653.97;126564;1086;104251;-80
2023/07/20 09:45:33;;;;;;;9.27;4.60;;;;;;;32.02;42.33;99644.56;126768;1086;102101;-78
2023/07/20 09:48:06;;;;;;;6.03;3.83;;;;;;;32.00;42.78;99647.38;126736;1086;104235;-80
2023/07/20 09:50:40;;;;;;;8.45;4.28;;;;;;;31.95;42.44;99644.11;126585;1086;102041;-77
2023/07/20 09:53:13;;;;;;;9.93;5.00;;;;;;;31.98;42.35;99651.19;126872;1086;104190;-79
2023/07/20 09:55:44;;;;;;;8.85;4.35;;;;;;;31.89;42.30;99656.23;127413;1086;101786;-81
2023/07/20 09:58:14;;;;;;;6.73;3.70;;;;;;;31.89;42.54;99650.80;126642;1086;104165;-78
2023/07/20 10:00:51;;;;;;;9.50;4.37;;;;;;;31.68;42.64;99649.51;126582;1086;104319;-80
2023/07/20 10:03:21;;;;;;;7.87;4.03;;;;;;;31.65;42.54;99641.58;126977;1086;104430;-78
2023/07/20 10:06:03;;;;;;;6.27;3.80;;;;;;;31.64;42.67;99650.70;126578;1086;101868;-79
2023/07/20 10:08:35;;;;;;;6.80;4.00;;;;;;;31.63;42.71;99643.53;127916;1086;101816;-81
2023/07/20 10:11:12;;;;;;;6.37;4.13;;;;;;;31.59;42.66;99647.43;126926;1086;101919;-80
2023/07/20 10:14:08;;;;;;;5.47;3.90;;;;;;;31.69;42.87;99648.55;127326;1086;104290;-77
2023/07/20 10:16:47;;;;;;;5.65;4.03;;;;;;;31.70;42.45;99645.73;126527;1086;102008;-82
2023/07/20 10:19:31;;;;;;;7.33;4.00;;;;;;;31.61;42.14;99640.06;128931;1085;101973;-75
2023/07/20 10:22:09;;;;;;;6.70;4.03;;;;;;;31.51;42.17;99635.20;127205;1086;104321;-80
2023/07/20 10:24:48;;;;;;;7.40;4.00;;;;;;;31.61;42.38;99637.34;128902;1085;101787;-79
2023/07/20 10:27:19;;;;;;;7.03;4.23;;;;;;;31.69;42.12;99632.28;127828;1086;101827;-79
2023/07/20 10:29:52;;;;;;;6.10;3.70;;;;;;;31.64;41.82;99634.44;126740;1086;102053;-79
2023/07/20 10:32:47;;;;;;;5.57;3.60;;;;;;;31.63;42.03;99622.70;128143;1086;101932;-79
2023/07/20 10:35:44;;;;;;;10.80;4.17;;;;;;;31.58;41.88;99632.12;127545;1086;110596;-80
2023/07/20 10:38:43;;;;;;;5.92;4.03;;;;;;;31.54;42.11;99631.47;127628;1086;102253;-78
2023/07/20 10:41:30;;;;;;;5.95;3.85;;;;;;;31.54;41.62;99635.03;127406;1086;103074;-80
2023/07/20 10:44:04;;;;;;;6.70;3.57;;;;;;;31.51;41.72;99643.34;126901;1089;102146;-78
2023/07/20 10:46:44;;;;;;;5.67;3.77;;;;;;;31.61;41.91;99635.49;126591;1086;104318;-79
2023/07/20 10:49:15;;;;;;;8.27;3.77;;;;;;;31.69;41.60;99629.56;126847;1086;101809;-81
2023/07/20 10:51:46;;;;;;;5.73;3.63;;;;;;;31.95;41.53;99630.55;127273;1086;101810;-80
2023/07/20 10:54:39;;;;;;;5.93;3.70;;;;;;;32.13;41.40;99635.73;127275;1086;101847;-88
2023/07/20 10:57:26;;;;;;;5.03;3.67;;;;;;;32.19;41.43;99625.31;127110;1086;104261;-85
2023/07/20 11:00:22;;;;;;;8.80;3.80;;;;;;;32.19;41.00;99617.17;127811;1086;101762;-87
2023/07/20 11:02:59;;;;;;;6.92;4.08;;;;;;;32.15;40.92;99612.06;127297;1086;103305;-80
2023/07/20 11:05:58;;;;;;;9.93;4.17;;;;;;;32.10;40.59;99615.12;127238;1086;102249;-83
2023/07/20 11:08:48;;;;;;;6.60;4.17;;;;;;;32.00;40.74;99609.39;127058;1086;104158;-81
2023/07/20 11:11:24;;;;;;;10.10;4.07;;;;;;;31.93;40.77;99599.95;127756;1086;101838;-84
2023/07/20 11:14:01;;;;;;;6.93;3.93;;;;;;;32.01;40.79;99597.58;127272;1086;102454;-87
2023/07/20 11:16:38;;;;;;;7.23;3.90;;;;;;;32.06;40.74;99587.27;127498;1086;104239;-88
2023/07/20 11:19:24;;;;;;;7.73;3.87;;;;;;;32.19;40.42;99586.46;127302;1086;102288;-82
2023/07/20 11:21:58;;;;;;;8.80;4.17;;;;;;;32.20;39.60;99586.36;127425;1086;101826;-84
2023/07/20 11:24:34;;;;;;;5.90;3.80;;;;;;;32.21;39.65;99574.53;128542;1085;101762;-84
2023/07/20 11:27:03;;;;;;;8.60;4.03;;;;;;;32.19;39.30;99572.89;127863;1089;102307;-82
2023/07/20 11:29:36;;;;;;;5.97;3.90;;;;;;;32.28;39.39;99582.26;128826;1085;104139;-82
2023/07/20 11:32:14;;;;;;;7.67;3.73;;;;;;;32.23;39.41;99577.14;128123;1089;101769;-82
2023/07/20 11:34:53;;;;;;;7.93;3.87;;;;;;;32.16;39.54;99564.97;127273;1089;102221;-83
2023/07/20 11:37:34;;;;;;;6.05;4.05;;;;;;;32.11;39.71;99562.56;127527;1086;101969;-80
2023/07/20 11:40:10;;;;;;;8.97;3.93;;;;;;;32.11;39.57;99562.56;127751;1086;104168;-80
2023/07/20 11:42:50;;;;;;;7.53;3.73;;;;;;;32.08;39.53;99555.50;129170;1085;101609;-79
2023/07/20 11:45:20;;;;;;;7.70;4.10;;;;;;;32.04;39.39;99547.67;128803;1086;101805;-80
2023/07/20 11:48:09;;;;;;;6.07;3.80;;;;;;;32.05;39.83;99552.11;128928;1086;101825;-82
2023/07/20 11:50:50;;;;;;;7.30;4.20;;;;;;;32.03;39.60;99529.64;128528;1085;102015;-78
2023/07/20 11:53:29;;;;;;;7.97;3.57;;;;;;;32.08;39.45;99531.08;128492;1085;104190;-82
2023/07/20 11:56:19;;;;;;;7.70;3.50;;;;;;;32.18;39.41;99531.33;127628;1086;102155;-85
2023/07/20 11:58:50;;;;;;;6.17;3.60;;;;;;;32.19;39.11;99537.62;128101;1087;101763;-84